sensor_id;sensor_type;location;lat;lon;timestamp;temperature;humidity
36372;DHT22;22398;51.346;12.372;2022-07-23T00:01:31;19.00;93.40
36372;DHT22;22398;51.346;12.372;2022-07-23T00:06:35;18.90;93.50
36372;DHT22;22398;51.346;12.372;2022-07-23T00:11:38;18.80;93.70
36372;DHT22;22398;51.346;12.372;2022-07-23T00:16:43;18.70;93.80
36372;DHT22;22398;51.346;12.372;2022-07-23T00:21:47;18.70;94.00
36372;DHT22;22398;51.346;12.372;2022-07-23T00:26:50;18.70;94.10
36372;DHT22;22398;51.346;12.372;2022-07-23T00:31:55;18.60;94.20
36372;DHT22;22398;51.346;12.372;2022-07-23T00:36:58;18.50;94.40
36372;DHT22;22398;51.346;12.372;2022-07-23T00:42:02;18.50;94.60
36372;DHT22;22398;51.346;12.372;2022-07-23T00:47:07;18.50;94.70
36372;DHT22;22398;51.346;12.372;2022-07-23T00:52:10;18.60;94.80
36372;DHT22;22398;51.346;12.372;2022-07-23T00:57:14;18.60;94.80
36372;DHT22;22398;51.346;12.372;2022-07-23T01:02:19;18.60;94.80
36372;DHT22;22398;51.346;12.372;2022-07-23T01:07:23;18.60;94.90
36372;DHT22;22398;51.346;12.372;2022-07-23T01:12:28;18.60;94.90
36372;DHT22;22398;51.346;12.372;2022-07-23T01:17:33;18.50;94.90
36372;DHT22;22398;51.346;12.372;2022-07-23T01:22:38;18.30;95.00
36372;DHT22;22398;51.346;12.372;2022-07-23T01:27:41;18.20;95.20
36372;DHT22;22398;51.346;12.372;2022-07-23T01:32:45;18.20;95.50
36372;DHT22;22398;51.346;12.372;2022-07-23T01:37:50;18.30;95.60
36372;DHT22;22398;51.346;12.372;2022-07-23T01:42:54;18.30;95.70
36372;DHT22;22398;51.346;12.372;2022-07-23T01:47:58;18.40;95.70
36372;DHT22;22398;51.346;12.372;2022-07-23T01:53:02;18.40;95.60
36372;DHT22;22398;51.346;12.372;2022-07-23T01:58:05;18.40;95.40
36372;DHT22;22398;51.346;12.372;2022-07-23T02:03:08;18.40;95.50
36372;DHT22;22398;51.346;12.372;2022-07-23T02:08:13;18.40;95.50
36372;DHT22;22398;51.346;12.372;2022-07-23T02:13:17;18.40;95.40
36372;DHT22;22398;51.346;12.372;2022-07-23T02:18:21;18.40;95.40
36372;DHT22;22398;51.346;12.372;2022-07-23T02:23:27;18.40;95.40
36372;DHT22;22398;51.346;12.372;2022-07-23T02:28:30;18.30;95.50
36372;DHT22;22398;51.346;12.372;2022-07-23T02:33:33;18.20;95.70
36372;DHT22;22398;51.346;12.372;2022-07-23T02:38:38;18.10;95.70
36372;DHT22;22398;51.346;12.372;2022-07-23T02:43:41;18.00;95.90
36372;DHT22;22398;51.346;12.372;2022-07-23T02:48:47;17.90;96.00
36372;DHT22;22398;51.346;12.372;2022-07-23T02:53:51;17.80;96.30
36372;DHT22;22398;51.346;12.372;2022-07-23T02:58:55;17.70;96.50
36372;DHT22;22398;51.346;12.372;2022-07-23T03:03:59;17.60;96.80
36372;DHT22;22398;51.346;12.372;2022-07-23T03:09:05;17.60;97.00
36372;DHT22;22398;51.346;12.372;2022-07-23T03:14:09;17.50;97.00
36372;DHT22;22398;51.346;12.372;2022-07-23T03:19:15;17.50;97.00
36372;DHT22;22398;51.346;12.372;2022-07-23T03:24:19;17.60;97.00
36372;DHT22;22398;51.346;12.372;2022-07-23T03:29:24;17.50;97.10
36372;DHT22;22398;51.346;12.372;2022-07-23T03:34:27;17.40;96.90
36372;DHT22;22398;51.346;12.372;2022-07-23T03:39:32;17.30;97.10
36372;DHT22;22398;51.346;12.372;2022-07-23T03:44:35;17.30;97.10
36372;DHT22;22398;51.346;12.372;2022-07-23T03:49:40;17.30;97.20
36372;DHT22;22398;51.346;12.372;2022-07-23T03:54:44;17.40;97.00
36372;DHT22;22398;51.346;12.372;2022-07-23T03:59:48;17.50;97.00
36372;DHT22;22398;51.346;12.372;2022-07-23T04:04:51;17.60;96.90
36372;DHT22;22398;51.346;12.372;2022-07-23T04:09:56;17.60;96.90
36372;DHT22;22398;51.346;12.372;2022-07-23T04:14:59;17.60;96.80
36372;DHT22;22398;51.346;12.372;2022-07-23T04:20:03;17.60;97.00
36372;DHT22;22398;51.346;12.372;2022-07-23T04:25:14;17.70;96.90
36372;DHT22;22398;51.346;12.372;2022-07-23T04:30:19;17.70;96.70
36372;DHT22;22398;51.346;12.372;2022-07-23T04:35:23;17.70;96.70
36372;DHT22;22398;51.346;12.372;2022-07-23T04:40:31;17.60;96.80
36372;DHT22;22398;51.346;12.372;2022-07-23T04:45:34;17.50;96.80
36372;DHT22;22398;51.346;12.372;2022-07-23T04:50:38;17.20;97.30
36372;DHT22;22398;51.346;12.372;2022-07-23T04:55:50;16.60;99.90
36372;DHT22;22398;51.346;12.372;2022-07-23T05:00:54;16.00;99.90
36372;DHT22;22398;51.346;12.372;2022-07-23T05:06:00;15.80;99.90
36372;DHT22;22398;51.346;12.372;2022-07-23T05:11:06;15.60;99.90
36372;DHT22;22398;51.346;12.372;2022-07-23T05:16:09;15.70;99.90
36372;DHT22;22398;51.346;12.372;2022-07-23T05:21:14;15.70;99.90
36372;DHT22;22398;51.346;12.372;2022-07-23T05:26:19;15.70;99.90
36372;DHT22;22398;51.346;12.372;2022-07-23T05:31:24;15.60;99.90
36372;DHT22;22398;51.346;12.372;2022-07-23T05:36:27;15.40;99.90
36372;DHT22;22398;51.346;12.372;2022-07-23T05:41:33;15.30;99.90
36372;DHT22;22398;51.346;12.372;2022-07-23T05:46:38;15.30;99.90
36372;DHT22;22398;51.346;12.372;2022-07-23T05:51:44;15.30;99.90
36372;DHT22;22398;51.346;12.372;2022-07-23T05:56:52;15.30;99.90
36372;DHT22;22398;51.346;12.372;2022-07-23T06:01:56;15.40;99.90
36372;DHT22;22398;51.346;12.372;2022-07-23T06:06:59;15.60;99.90
36372;DHT22;22398;51.346;12.372;2022-07-23T06:12:04;15.70;99.90
36372;DHT22;22398;51.346;12.372;2022-07-23T06:17:08;16.00;99.90
36372;DHT22;22398;51.346;12.372;2022-07-23T06:22:11;16.40;99.90
36372;DHT22;22398;51.346;12.372;2022-07-23T06:27:16;16.60;99.90
36372;DHT22;22398;51.346;12.372;2022-07-23T06:32:26;16.80;99.90
36372;DHT22;22398;51.346;12.372;2022-07-23T06:37:29;17.10;99.90
36372;DHT22;22398;51.346;12.372;2022-07-23T06:42:34;17.30;99.90
36372;DHT22;22398;51.346;12.372;2022-07-23T06:47:38;18.00;99.90
36372;DHT22;22398;51.346;12.372;2022-07-23T06:52:43;18.20;99.90
36372;DHT22;22398;51.346;12.372;2022-07-23T06:57:48;18.00;99.90
36372;DHT22;22398;51.346;12.372;2022-07-23T07:02:51;18.00;99.90
36372;DHT22;22398;51.346;12.372;2022-07-23T07:07:56;18.00;99.90
36372;DHT22;22398;51.346;12.372;2022-07-23T07:13:00;18.00;99.90
36372;DHT22;22398;51.346;12.372;2022-07-23T07:18:03;18.00;99.90
36372;DHT22;22398;51.346;12.372;2022-07-23T07:23:07;18.30;99.90
36372;DHT22;22398;51.346;12.372;2022-07-23T07:28:12;18.30;99.90
36372;DHT22;22398;51.346;12.372;2022-07-23T07:33:15;18.50;99.90
36372;DHT22;22398;51.346;12.372;2022-07-23T07:38:19;18.30;99.90
36372;DHT22;22398;51.346;12.372;2022-07-23T07:43:24;18.20;99.90
36372;DHT22;22398;51.346;12.372;2022-07-23T07:53:31;18.80;99.90
36372;DHT22;22398;51.346;12.372;2022-07-23T07:58:35;18.90;99.90
36372;DHT22;22398;51.346;12.372;2022-07-23T08:03:39;19.00;99.90
36372;DHT22;22398;51.346;12.372;2022-07-23T08:08:43;19.00;99.90
36372;DHT22;22398;51.346;12.372;2022-07-23T08:13:48;19.20;99.90
36372;DHT22;22398;51.346;12.372;2022-07-23T08:18:51;19.50;99.90
36372;DHT22;22398;51.346;12.372;2022-07-23T08:28:59;20.50;99.90
36372;DHT22;22398;51.346;12.372;2022-07-23T08:34:02;20.50;99.90
36372;DHT22;22398;51.346;12.372;2022-07-23T08:39:06;20.00;99.90
36372;DHT22;22398;51.346;12.372;2022-07-23T08:44:11;20.40;99.90
36372;DHT22;22398;51.346;12.372;2022-07-23T08:49:14;20.50;99.90
36372;DHT22;22398;51.346;12.372;2022-07-23T08:54:17;20.20;99.90
36372;DHT22;22398;51.346;12.372;2022-07-23T08:59:23;20.10;99.90
36372;DHT22;22398;51.346;12.372;2022-07-23T09:04:28;20.10;99.90
36372;DHT22;22398;51.346;12.372;2022-07-23T09:09:34;20.80;99.90
36372;DHT22;22398;51.346;12.372;2022-07-23T09:14:40;20.70;99.90
36372;DHT22;22398;51.346;12.372;2022-07-23T09:19:44;20.30;99.90
36372;DHT22;22398;51.346;12.372;2022-07-23T09:25:05;20.00;99.90
36372;DHT22;22398;51.346;12.372;2022-07-23T09:30:10;19.50;99.90
36372;DHT22;22398;51.346;12.372;2022-07-23T09:35:14;19.30;99.90
36372;DHT22;22398;51.346;12.372;2022-07-23T09:40:17;19.40;99.90
36372;DHT22;22398;51.346;12.372;2022-07-23T09:45:23;19.70;99.90
36372;DHT22;22398;51.346;12.372;2022-07-23T09:50:26;20.20;99.90
36372;DHT22;22398;51.346;12.372;2022-07-23T10:00:35;20.50;99.90
36372;DHT22;22398;51.346;12.372;2022-07-23T10:05:39;20.40;99.90
36372;DHT22;22398;51.346;12.372;2022-07-23T10:11:11;20.20;99.90
36372;DHT22;22398;51.346;12.372;2022-07-23T10:16:29;20.30;99.90
36372;DHT22;22398;51.346;12.372;2022-07-23T10:21:34;20.20;99.90
36372;DHT22;22398;51.346;12.372;2022-07-23T10:26:41;20.60;99.90
36372;DHT22;22398;51.346;12.372;2022-07-23T10:31:52;20.90;99.60
36372;DHT22;22398;51.346;12.372;2022-07-23T10:37:07;20.70;99.10
36372;DHT22;22398;51.346;12.372;2022-07-23T10:47:26;21.20;98.50
36372;DHT22;22398;51.346;12.372;2022-07-23T10:58:10;21.60;98.00
36372;DHT22;22398;51.346;12.372;2022-07-23T11:08:43;21.90;97.00
36372;DHT22;22398;51.346;12.372;2022-07-23T11:13:47;22.10;97.10
36372;DHT22;22398;51.346;12.372;2022-07-23T11:18:55;22.40;96.40
36372;DHT22;22398;51.346;12.372;2022-07-23T11:24:00;22.20;96.20
36372;DHT22;22398;51.346;12.372;2022-07-23T11:34:27;21.70;96.70
36372;DHT22;22398;51.346;12.372;2022-07-23T11:39:33;21.90;96.40
36372;DHT22;22398;51.346;12.372;2022-07-23T11:44:37;22.00;96.20
36372;DHT22;22398;51.346;12.372;2022-07-23T11:49:43;22.60;95.90
36372;DHT22;22398;51.346;12.372;2022-07-23T11:54:56;23.50;94.80
36372;DHT22;22398;51.346;12.372;2022-07-23T12:05:13;24.20;93.40
36372;DHT22;22398;51.346;12.372;2022-07-23T12:10:19;24.50;92.00
36372;DHT22;22398;51.346;12.372;2022-07-23T12:15:23;24.50;91.90
36372;DHT22;22398;51.346;12.372;2022-07-23T12:20:31;24.60;91.20
36372;DHT22;22398;51.346;12.372;2022-07-23T12:25:37;24.80;91.20
36372;DHT22;22398;51.346;12.372;2022-07-23T12:40:51;25.80;88.90
36372;DHT22;22398;51.346;12.372;2022-07-23T12:45:57;25.50;88.00
36372;DHT22;22398;51.346;12.372;2022-07-23T12:51:02;25.70;87.60
36372;DHT22;22398;51.346;12.372;2022-07-23T12:56:07;25.30;86.40
36372;DHT22;22398;51.346;12.372;2022-07-23T13:01:23;24.60;86.40
36372;DHT22;22398;51.346;12.372;2022-07-23T13:06:28;24.10;87.40
36372;DHT22;22398;51.346;12.372;2022-07-23T13:16:38;23.50;88.00
36372;DHT22;22398;51.346;12.372;2022-07-23T13:21:42;23.40;88.60
36372;DHT22;22398;51.346;12.372;2022-07-23T13:26:45;23.40;89.60
36372;DHT22;22398;51.346;12.372;2022-07-23T13:31:53;23.60;88.60
36372;DHT22;22398;51.346;12.372;2022-07-23T13:36:57;23.60;88.40
36372;DHT22;22398;51.346;12.372;2022-07-23T13:42:00;23.60;88.70
36372;DHT22;22398;51.346;12.372;2022-07-23T13:47:09;23.40;87.90
36372;DHT22;22398;51.346;12.372;2022-07-23T13:52:13;23.30;88.30
36372;DHT22;22398;51.346;12.372;2022-07-23T13:57:16;23.40;88.20
36372;DHT22;22398;51.346;12.372;2022-07-23T14:02:21;23.30;88.10
36372;DHT22;22398;51.346;12.372;2022-07-23T14:07:28;23.90;88.00
36372;DHT22;22398;51.346;12.372;2022-07-23T14:12:31;23.90;88.30
36372;DHT22;22398;51.346;12.372;2022-07-23T14:17:39;24.00;87.20
36372;DHT22;22398;51.346;12.372;2022-07-23T14:22:43;24.00;87.40
36372;DHT22;22398;51.346;12.372;2022-07-23T14:27:47;25.00;86.20
36372;DHT22;22398;51.346;12.372;2022-07-23T14:32:52;25.10;86.30
36372;DHT22;22398;51.346;12.372;2022-07-23T14:37:56;25.60;84.10
36372;DHT22;22398;51.346;12.372;2022-07-23T14:42:59;25.30;84.20
36372;DHT22;22398;51.346;12.372;2022-07-23T14:48:04;25.30;83.20
36372;DHT22;22398;51.346;12.372;2022-07-23T14:53:09;25.30;83.30
36372;DHT22;22398;51.346;12.372;2022-07-23T14:58:12;25.60;81.90
36372;DHT22;22398;51.346;12.372;2022-07-23T15:03:17;25.50;82.10
36372;DHT22;22398;51.346;12.372;2022-07-23T15:08:22;25.30;81.70
36372;DHT22;22398;51.346;12.372;2022-07-23T15:13:25;24.70;81.90
36372;DHT22;22398;51.346;12.372;2022-07-23T15:18:30;24.60;82.60
36372;DHT22;22398;51.346;12.372;2022-07-23T15:23:34;24.90;82.60
36372;DHT22;22398;51.346;12.372;2022-07-23T15:28:40;25.20;82.30
36372;DHT22;22398;51.346;12.372;2022-07-23T15:33:45;25.50;81.30
36372;DHT22;22398;51.346;12.372;2022-07-23T15:43:53;25.80;80.60
36372;DHT22;22398;51.346;12.372;2022-07-23T15:48:58;25.70;80.30
36372;DHT22;22398;51.346;12.372;2022-07-23T15:54:03;25.80;80.10
36372;DHT22;22398;51.346;12.372;2022-07-23T15:59:07;26.10;79.30
36372;DHT22;22398;51.346;12.372;2022-07-23T16:04:13;26.10;78.60
36372;DHT22;22398;51.346;12.372;2022-07-23T16:09:17;26.10;78.50
36372;DHT22;22398;51.346;12.372;2022-07-23T16:14:21;26.30;77.80
36372;DHT22;22398;51.346;12.372;2022-07-23T16:19:26;26.60;77.60
36372;DHT22;22398;51.346;12.372;2022-07-23T16:24:29;26.70;77.00
36372;DHT22;22398;51.346;12.372;2022-07-23T16:29:33;27.10;77.10
36372;DHT22;22398;51.346;12.372;2022-07-23T16:34:38;27.30;75.90
36372;DHT22;22398;51.346;12.372;2022-07-23T16:39:41;27.50;75.70
36372;DHT22;22398;51.346;12.372;2022-07-23T16:44:45;28.00;74.90
36372;DHT22;22398;51.346;12.372;2022-07-23T16:49:50;28.50;73.50
36372;DHT22;22398;51.346;12.372;2022-07-23T16:54:53;28.30;72.60
36372;DHT22;22398;51.346;12.372;2022-07-23T16:59:57;28.00;71.90
36372;DHT22;22398;51.346;12.372;2022-07-23T17:05:02;28.00;71.50
36372;DHT22;22398;51.346;12.372;2022-07-23T17:10:06;28.10;71.20
36372;DHT22;22398;51.346;12.372;2022-07-23T17:15:11;28.30;70.60
36372;DHT22;22398;51.346;12.372;2022-07-23T17:20:15;27.50;70.00
36372;DHT22;22398;51.346;12.372;2022-07-23T17:25:19;26.70;70.10
36372;DHT22;22398;51.346;12.372;2022-07-23T17:30:23;26.10;70.70
36372;DHT22;22398;51.346;12.372;2022-07-23T17:35:27;26.30;71.30
36372;DHT22;22398;51.346;12.372;2022-07-23T17:40:31;26.90;71.00
36372;DHT22;22398;51.346;12.372;2022-07-23T17:45:34;26.80;69.90
36372;DHT22;22398;51.346;12.372;2022-07-23T17:50:39;26.40;69.90
36372;DHT22;22398;51.346;12.372;2022-07-23T17:55:43;26.30;70.30
36372;DHT22;22398;51.346;12.372;2022-07-23T18:00:46;26.40;70.50
36372;DHT22;22398;51.346;12.372;2022-07-23T18:05:51;26.90;70.40
36372;DHT22;22398;51.346;12.372;2022-07-23T18:10:55;27.30;69.90
36372;DHT22;22398;51.346;12.372;2022-07-23T18:15:58;27.40;69.00
36372;DHT22;22398;51.346;12.372;2022-07-23T18:21:03;27.10;67.60
36372;DHT22;22398;51.346;12.372;2022-07-23T18:26:07;26.60;66.70
36372;DHT22;22398;51.346;12.372;2022-07-23T18:31:15;26.20;65.80
36372;DHT22;22398;51.346;12.372;2022-07-23T18:36:20;25.70;65.10
36372;DHT22;22398;51.346;12.372;2022-07-23T18:41:25;24.90;65.10
36372;DHT22;22398;51.346;12.372;2022-07-23T18:46:28;24.30;65.50
36372;DHT22;22398;51.346;12.372;2022-07-23T18:51:33;23.80;66.00
36372;DHT22;22398;51.346;12.372;2022-07-23T18:56:37;23.40;66.40
36372;DHT22;22398;51.346;12.372;2022-07-23T19:01:40;23.10;66.90
36372;DHT22;22398;51.346;12.372;2022-07-23T19:06:45;22.80;67.20
36372;DHT22;22398;51.346;12.372;2022-07-23T19:11:48;22.50;67.50
36372;DHT22;22398;51.346;12.372;2022-07-23T19:16:51;22.40;67.90
36372;DHT22;22398;51.346;12.372;2022-07-23T19:21:56;22.10;68.20
36372;DHT22;22398;51.346;12.372;2022-07-23T19:27:00;21.90;68.70
36372;DHT22;22398;51.346;12.372;2022-07-23T19:32:08;21.80;69.10
36372;DHT22;22398;51.346;12.372;2022-07-23T19:37:13;21.60;69.40
36372;DHT22;22398;51.346;12.372;2022-07-23T19:42:17;21.40;69.80
36372;DHT22;22398;51.346;12.372;2022-07-23T19:47:24;21.20;70.00
36372;DHT22;22398;51.346;12.372;2022-07-23T19:52:29;21.10;70.00
36372;DHT22;22398;51.346;12.372;2022-07-23T19:57:35;21.00;70.60
36372;DHT22;22398;51.346;12.372;2022-07-23T20:02:40;20.80;70.90
36372;DHT22;22398;51.346;12.372;2022-07-23T20:07:45;20.70;71.20
36372;DHT22;22398;51.346;12.372;2022-07-23T20:12:48;20.60;71.50
36372;DHT22;22398;51.346;12.372;2022-07-23T20:17:52;20.50;71.80
36372;DHT22;22398;51.346;12.372;2022-07-23T20:22:57;20.40;72.10
36372;DHT22;22398;51.346;12.372;2022-07-23T20:28:01;20.20;72.60
36372;DHT22;22398;51.346;12.372;2022-07-23T20:33:05;20.10;73.00
36372;DHT22;22398;51.346;12.372;2022-07-23T20:38:09;20.00;73.40
36372;DHT22;22398;51.346;12.372;2022-07-23T20:43:13;19.80;73.90
36372;DHT22;22398;51.346;12.372;2022-07-23T20:48:16;19.60;74.40
36372;DHT22;22398;51.346;12.372;2022-07-23T20:53:31;19.50;74.90
36372;DHT22;22398;51.346;12.372;2022-07-23T20:58:34;19.40;75.40
36372;DHT22;22398;51.346;12.372;2022-07-23T21:03:37;19.40;75.50
36372;DHT22;22398;51.346;12.372;2022-07-23T21:08:50;19.30;75.60
36372;DHT22;22398;51.346;12.372;2022-07-23T21:13:54;19.20;75.70
36372;DHT22;22398;51.346;12.372;2022-07-23T21:18:58;19.10;75.80
36372;DHT22;22398;51.346;12.372;2022-07-23T21:24:04;19.00;76.10
36372;DHT22;22398;51.346;12.372;2022-07-23T21:29:08;19.00;76.40
36372;DHT22;22398;51.346;12.372;2022-07-23T21:34:11;18.90;76.70
36372;DHT22;22398;51.346;12.372;2022-07-23T21:39:16;18.90;77.20
36372;DHT22;22398;51.346;12.372;2022-07-23T21:44:19;18.70;77.50
36372;DHT22;22398;51.346;12.372;2022-07-23T21:49:25;18.70;78.00
36372;DHT22;22398;51.346;12.372;2022-07-23T21:54:37;18.70;78.40
36372;DHT22;22398;51.346;12.372;2022-07-23T21:59:40;18.70;78.80
36372;DHT22;22398;51.346;12.372;2022-07-23T22:04:46;18.60;79.20
36372;DHT22;22398;51.346;12.372;2022-07-23T22:09:51;18.50;79.70
36372;DHT22;22398;51.346;12.372;2022-07-23T22:15:03;18.40;80.10
36372;DHT22;22398;51.346;12.372;2022-07-23T22:20:06;18.30;80.70
36372;DHT22;22398;51.346;12.372;2022-07-23T22:25:12;18.20;81.10
36372;DHT22;22398;51.346;12.372;2022-07-23T22:30:16;18.10;81.50
36372;DHT22;22398;51.346;12.372;2022-07-23T22:35:20;18.00;82.00
36372;DHT22;22398;51.346;12.372;2022-07-23T22:40:25;18.00;82.40
36372;DHT22;22398;51.346;12.372;2022-07-23T22:45:28;17.90;82.80
36372;DHT22;22398;51.346;12.372;2022-07-23T22:50:32;17.80;83.10
36372;DHT22;22398;51.346;12.372;2022-07-23T22:55:37;17.80;83.50
36372;DHT22;22398;51.346;12.372;2022-07-23T23:00:40;17.70;83.90
36372;DHT22;22398;51.346;12.372;2022-07-23T23:05:44;17.50;84.30
36372;DHT22;22398;51.346;12.372;2022-07-23T23:10:48;17.40;84.90
36372;DHT22;22398;51.346;12.372;2022-07-23T23:15:52;17.30;85.50
36372;DHT22;22398;51.346;12.372;2022-07-23T23:20:55;17.20;86.10
36372;DHT22;22398;51.346;12.372;2022-07-23T23:26:00;17.00;86.60
36372;DHT22;22398;51.346;12.372;2022-07-23T23:31:03;17.00;87.50
36372;DHT22;22398;51.346;12.372;2022-07-23T23:36:07;17.00;87.90
36372;DHT22;22398;51.346;12.372;2022-07-23T23:41:12;16.80;88.40
36372;DHT22;22398;51.346;12.372;2022-07-23T23:46:15;16.70;89.10
36372;DHT22;22398;51.346;12.372;2022-07-23T23:51:19;16.70;89.70
36372;DHT22;22398;51.346;12.372;2022-07-23T23:56:23;16.70;90.10
